createdAt,value
2018-09-01T00:00:12.786Z,7.53
2018-09-01T00:01:12.779Z,7.50
2018-09-01T00:02:12.767Z,7.47
2018-09-01T00:03:12.755Z,7.48
2018-09-01T00:04:12.752Z,7.42
2018-09-01T00:05:12.741Z,7.38
2018-09-01T00:06:12.724Z,7.38
2018-09-01T00:07:12.712Z,7.39
2018-09-01T00:08:12.707Z,7.40
2018-09-01T00:09:12.700Z,7.36
2018-09-01T00:10:12.681Z,7.39
2018-09-01T00:11:12.709Z,7.40
2018-09-01T00:12:12.656Z,7.40
2018-09-01T00:13:12.647Z,7.50
2018-09-01T00:14:12.637Z,7.43
2018-09-01T00:15:12.623Z,7.36
2018-09-01T00:16:12.644Z,7.45
2018-09-01T00:17:12.611Z,7.39
2018-09-01T00:18:12.595Z,7.51
2018-09-01T00:19:12.587Z,7.43
2018-09-01T00:20:12.571Z,7.39
2018-09-01T00:21:12.560Z,7.39
2018-09-01T00:22:12.553Z,7.39
2018-09-01T00:23:12.543Z,7.38
2018-09-01T00:24:12.526Z,7.35
2018-09-01T00:25:12.519Z,7.33
2018-09-01T00:26:12.509Z,7.36
2018-09-01T00:27:12.500Z,7.39
2018-09-01T00:28:12.490Z,7.33
2018-09-01T00:29:12.477Z,7.32
2018-09-01T00:30:12.465Z,7.35
2018-09-01T00:31:12.457Z,7.23
2018-09-01T00:32:12.442Z,7.18
2018-09-01T00:33:12.432Z,7.25
2018-09-01T00:34:12.421Z,7.24
2018-09-01T00:35:12.407Z,7.23
2018-09-01T00:36:12.403Z,7.20
2018-09-01T00:37:12.440Z,7.20
2018-09-01T00:38:12.377Z,7.06
2018-09-01T00:39:12.364Z,7.10
2018-09-01T00:40:12.360Z,7.10
2018-09-01T00:41:12.347Z,7.05
2018-09-01T00:42:12.360Z,7.10
2018-09-01T00:43:12.327Z,7.10
2018-09-01T00:44:12.323Z,7.20
2018-09-01T00:45:12.302Z,7.23
2018-09-01T00:46:12.292Z,7.20
2018-09-01T00:47:12.277Z,7.29
2018-09-01T00:48:12.275Z,7.21
2018-09-01T00:49:12.262Z,7.23
2018-09-01T00:50:12.248Z,7.24
2018-09-01T00:51:12.244Z,7.23
2018-09-01T00:52:12.223Z,7.31
2018-09-01T00:53:12.218Z,7.23
2018-09-01T00:54:12.210Z,7.28
2018-09-01T00:55:12.197Z,7.23
2018-09-01T00:56:12.180Z,7.21
2018-09-01T00:57:12.171Z,7.24
2018-09-01T00:58:12.162Z,7.23
2018-09-01T00:59:12.147Z,7.11
2018-09-01T01:00:12.143Z,7.05
2018-09-01T01:01:12.133Z,7.10
2018-09-01T01:02:12.135Z,6.97
2018-09-01T01:03:12.127Z,7.05
2018-09-01T01:04:12.093Z,6.97
2018-09-01T01:05:12.084Z,7.02
2018-09-01T01:06:12.074Z,6.95
2018-09-01T01:07:12.061Z,6.88
2018-09-01T01:08:12.066Z,6.85
2018-09-01T01:09:12.045Z,6.88
2018-09-01T01:10:12.033Z,6.88
2018-09-01T01:11:12.029Z,6.92
2018-09-01T01:12:12.015Z,6.88
2018-09-01T01:13:12.027Z,6.92
2018-09-01T01:14:11.990Z,6.88
2018-09-01T01:15:11.981Z,6.93
2018-09-01T01:16:11.963Z,6.89
2018-09-01T01:17:11.955Z,6.85
2018-09-01T01:18:11.945Z,6.92
2018-09-01T01:19:11.936Z,6.88
2018-09-01T01:20:11.939Z,6.88
2018-09-01T01:21:11.915Z,6.77
2018-09-01T01:22:11.905Z,6.77
2018-09-01T01:23:11.896Z,6.67
2018-09-01T01:24:11.879Z,6.74
2018-09-01T01:25:11.869Z,6.67
2018-09-01T01:26:11.877Z,6.67
2018-09-01T01:27:11.852Z,6.67
2018-09-01T01:28:11.854Z,6.67
2018-09-01T01:29:11.829Z,6.79
2018-09-01T01:30:11.815Z,6.82
2018-09-01T01:31:11.802Z,6.89
2018-09-01T01:32:11.798Z,6.85
2018-09-01T01:33:11.794Z,6.85
2018-09-01T01:34:11.776Z,6.82
2018-09-01T01:35:11.765Z,6.92
2018-09-01T01:36:11.748Z,6.92
2018-09-01T01:37:11.741Z,6.87
2018-09-01T01:38:11.745Z,6.85
2018-09-01T01:39:11.718Z,6.95
2018-09-01T01:40:11.712Z,6.88
2018-09-01T01:41:11.702Z,6.88
2018-09-01T01:42:11.686Z,6.77
2018-09-01T01:43:11.673Z,6.95
2018-09-01T01:44:11.692Z,6.96
2018-09-01T01:45:11.659Z,6.88
2018-09-01T01:46:11.647Z,6.88
2018-09-01T01:47:11.636Z,6.84
2018-09-01T01:48:11.619Z,6.88
2018-09-01T01:49:11.611Z,6.87
2018-09-01T01:50:11.602Z,6.79
2018-09-01T01:51:11.590Z,6.78
2018-09-01T01:52:11.583Z,6.72
2018-09-01T01:53:11.570Z,6.62
2018-09-01T01:54:11.560Z,6.63
2018-09-01T01:55:11.575Z,6.64
2018-09-01T01:56:11.534Z,6.59
2018-09-01T01:57:11.527Z,6.60
2018-09-01T01:58:11.519Z,6.59
2018-09-01T01:59:11.508Z,6.59
2018-09-01T02:00:11.491Z,6.59
2018-09-01T02:01:11.485Z,6.70
2018-09-01T02:02:11.471Z,6.77
2018-09-01T02:03:11.459Z,6.75
2018-09-01T02:04:11.459Z,6.70
2018-09-01T02:05:11.446Z,6.67
2018-09-01T02:06:11.458Z,6.66
2018-09-01T02:07:11.423Z,6.67
2018-09-01T02:08:11.409Z,6.60
2018-09-01T02:09:11.395Z,6.56
2018-09-01T02:10:11.387Z,6.59
2018-09-01T02:11:11.372Z,6.59
2018-09-01T02:12:11.370Z,6.62
2018-09-01T02:13:11.361Z,6.49
2018-09-01T02:14:11.342Z,6.60
2018-09-01T02:15:11.337Z,6.57
2018-09-01T02:16:11.328Z,6.60
2018-09-01T02:17:11.313Z,6.59
2018-09-01T02:18:11.302Z,6.64
2018-09-01T02:19:11.293Z,6.63
2018-09-01T02:20:11.276Z,6.60
2018-09-01T02:21:11.291Z,6.66
2018-09-01T02:22:11.256Z,6.67
2018-09-01T02:23:11.243Z,6.60
2018-09-01T02:24:11.240Z,6.60
2018-09-01T02:25:11.230Z,6.57
2018-09-01T02:26:11.216Z,6.59
2018-09-01T02:27:11.217Z,6.51
2018-09-01T02:28:11.191Z,6.51
2018-09-01T02:29:11.182Z,6.56
2018-09-01T02:30:11.174Z,6.33
2018-09-01T02:31:11.167Z,6.41
2018-09-01T02:32:11.177Z,6.36
2018-09-01T02:33:11.139Z,6.30
2018-09-01T02:34:11.128Z,6.28
2018-09-01T02:35:11.118Z,6.14
2018-09-01T02:36:11.110Z,6.19
2018-09-01T02:37:11.101Z,6.20
2018-09-01T02:38:11.089Z,6.22
2018-09-01T02:39:11.079Z,6.35
2018-09-01T02:40:11.063Z,6.28
2018-09-01T02:41:11.052Z,6.30
2018-09-01T02:42:11.041Z,6.33
2018-09-01T02:43:11.030Z,6.35
2018-09-01T02:44:11.030Z,6.36
2018-09-01T02:45:11.012Z,6.46
2018-09-01T02:46:11.003Z,6.35
2018-09-01T02:47:10.985Z,6.52
2018-09-01T02:48:11.009Z,6.36
2018-09-01T02:49:10.969Z,6.35
2018-09-01T02:50:10.958Z,6.38
2018-09-01T02:51:10.954Z,6.38
2018-09-01T02:52:10.940Z,6.30
2018-09-01T02:53:10.927Z,6.17
2018-09-01T02:54:10.916Z,6.20
2018-09-01T02:55:10.900Z,6.19
2018-09-01T02:56:10.907Z,6.17
2018-09-01T02:57:10.883Z,6.14
2018-09-01T02:58:10.873Z,6.04
2018-09-01T02:59:10.892Z,6.09
2018-09-01T03:00:10.875Z,5.93
2018-09-01T03:01:10.839Z,5.93
2018-09-01T03:02:10.831Z,5.91
2018-09-01T03:03:10.821Z,5.84
2018-09-01T03:04:10.804Z,5.86
2018-09-01T03:05:10.797Z,5.86
2018-09-01T03:06:10.785Z,5.97
2018-09-01T03:07:10.772Z,5.93
2018-09-01T03:08:10.771Z,6.05
2018-09-01T03:09:10.757Z,6.01
2018-09-01T03:10:10.746Z,6.07
2018-09-01T03:11:10.735Z,6.12
2018-09-01T03:12:10.734Z,6.07
2018-09-01T03:13:10.717Z,6.07
2018-09-01T03:14:10.700Z,6.05
2018-09-01T03:15:10.711Z,6.16
2018-09-01T03:16:10.684Z,6.11
2018-09-01T03:17:10.672Z,5.98
2018-09-01T03:18:10.661Z,6.04
2018-09-01T03:19:10.644Z,6.05
2018-09-01T03:20:10.642Z,6.09
2018-09-01T03:21:10.629Z,6.02
2018-09-01T03:22:10.623Z,6.02
2018-09-01T03:23:10.609Z,5.99
2018-09-01T03:24:10.590Z,6.05
2018-09-01T03:25:10.586Z,6.01
2018-09-01T03:26:10.597Z,5.97
2018-09-01T03:27:10.559Z,6.01
2018-09-01T03:28:10.556Z,6.02
2018-09-01T03:29:10.542Z,5.98
2018-09-01T03:30:10.537Z,5.99
2018-09-01T03:31:10.523Z,6.04
2018-09-01T03:32:10.523Z,5.99
2018-09-01T03:33:10.497Z,5.99
2018-09-01T03:34:10.490Z,6.01
2018-09-01T03:35:10.481Z,6.01
2018-09-01T03:36:10.464Z,5.94
2018-09-01T03:37:10.457Z,5.97
2018-09-01T03:38:10.444Z,5.90
2018-09-01T03:39:10.430Z,5.84
2018-09-01T03:40:10.427Z,5.84
2018-09-01T03:41:10.417Z,5.73
2018-09-01T03:42:10.428Z,5.71
2018-09-01T03:43:10.396Z,5.73
2018-09-01T03:44:10.377Z,5.64
2018-09-01T03:45:10.369Z,5.72
2018-09-01T03:46:10.359Z,5.75
2018-09-01T03:47:10.348Z,5.73
2018-09-01T03:48:10.344Z,5.69
2018-09-01T03:49:10.330Z,5.80
2018-09-01T03:50:10.317Z,5.80
2018-09-01T03:51:10.349Z,5.82
2018-09-01T03:52:10.308Z,5.84
2018-09-01T03:53:10.308Z,5.90
2018-09-01T03:54:10.275Z,5.87
2018-09-01T03:55:10.266Z,5.90
2018-09-01T03:56:10.250Z,5.93
2018-09-01T03:57:10.248Z,5.89
2018-09-01T03:58:10.251Z,5.94
2018-09-01T03:59:10.225Z,5.86
2018-09-01T04:00:10.212Z,5.86
2018-09-01T04:01:10.202Z,5.80
2018-09-01T04:02:10.195Z,5.79
2018-09-01T04:03:10.179Z,5.79
2018-09-01T04:04:10.169Z,5.69
2018-09-01T04:05:10.152Z,5.61
2018-09-01T04:06:10.148Z,5.56
2018-09-01T04:07:10.141Z,5.62
2018-09-01T04:08:10.126Z,5.51
2018-09-01T04:09:10.138Z,5.54
2018-09-01T04:10:10.099Z,5.53
2018-09-01T04:11:10.098Z,5.48
2018-09-01T04:12:10.082Z,5.51
2018-09-01T04:13:10.074Z,5.65
2018-09-01T04:14:10.062Z,5.61
2018-09-01T04:15:10.056Z,5.66
2018-09-01T04:16:10.044Z,5.75
2018-09-01T04:17:10.023Z,5.76
2018-09-01T04:18:10.013Z,5.80
2018-09-01T04:19:10.007Z,5.73
2018-09-01T04:20:10.001Z,5.71
2018-09-01T04:21:09.987Z,5.68
2018-09-01T04:22:09.971Z,5.64
2018-09-01T04:23:09.962Z,5.65
2018-09-01T04:24:09.954Z,5.71
2018-09-01T04:25:09.951Z,5.71
2018-09-01T04:26:09.934Z,5.66
2018-09-01T04:27:09.921Z,5.75
2018-09-01T04:28:09.909Z,5.71
2018-09-01T04:29:09.895Z,5.76
2018-09-01T04:30:09.887Z,5.91
2018-09-01T04:31:09.896Z,5.82
2018-09-01T04:32:09.973Z,5.89
2018-09-01T04:33:09.862Z,5.84
2018-09-01T04:34:09.849Z,5.87
2018-09-01T04:35:09.842Z,5.90
2018-09-01T04:36:09.822Z,6.02
2018-09-01T04:37:09.811Z,5.99
2018-09-01T04:38:09.808Z,5.90
2018-09-01T04:39:09.815Z,6.02
2018-09-01T04:40:09.811Z,5.90
2018-09-01T04:41:09.769Z,5.99
2018-09-01T04:42:09.761Z,6.01
2018-09-01T04:43:09.749Z,6.05
2018-09-01T04:44:09.739Z,5.99
2018-09-01T04:45:09.731Z,5.94
2018-09-01T04:46:09.727Z,5.86
2018-09-01T04:47:09.792Z,5.91
2018-09-01T04:48:09.697Z,5.91
2018-09-01T04:49:09.682Z,5.84
2018-09-01T04:50:09.677Z,5.86
2018-09-01T04:51:09.690Z,5.83
2018-09-01T04:52:09.655Z,5.69
2018-09-01T04:53:09.645Z,5.68
2018-09-01T04:54:09.630Z,5.64
2018-09-01T04:55:09.620Z,5.59
2018-09-01T04:56:09.611Z,5.68
2018-09-01T04:57:09.605Z,5.65
2018-09-01T04:58:09.593Z,5.62
2018-09-01T04:59:09.580Z,5.56
2018-09-01T05:00:09.567Z,5.64
2018-09-01T05:01:09.707Z,5.66
2018-09-01T05:02:09.547Z,5.44
2018-09-01T05:03:09.535Z,5.50
2018-09-01T05:04:09.527Z,5.59
2018-09-01T05:05:09.519Z,5.43
2018-09-01T05:06:09.508Z,5.51
2018-09-01T05:07:09.518Z,5.48
2018-09-01T05:08:09.485Z,5.47
2018-09-01T05:09:09.477Z,5.59
2018-09-01T05:10:09.464Z,5.64
2018-09-01T05:11:09.452Z,5.65
2018-09-01T05:12:09.453Z,5.71
2018-09-01T05:13:09.445Z,5.82
2018-09-01T05:14:09.455Z,5.83
2018-09-01T05:15:09.407Z,5.82
2018-09-01T05:16:09.399Z,5.89
2018-09-01T05:17:09.390Z,5.93
2018-09-01T05:18:09.383Z,5.90
2018-09-01T05:19:09.365Z,5.91
2018-09-01T05:20:09.355Z,6.02
2018-09-01T05:21:09.341Z,5.99
2018-09-01T05:22:09.330Z,6.01
2018-09-01T05:23:09.345Z,6.12
2018-09-01T05:24:09.314Z,6.09
2018-09-01T05:25:09.307Z,6.16
2018-09-01T05:26:09.288Z,6.17
2018-09-01T05:27:09.289Z,6.24
2018-09-01T05:28:09.275Z,6.33
2018-09-01T05:29:09.269Z,6.39
2018-09-01T05:30:09.253Z,6.36
2018-09-01T05:31:09.253Z,6.35
2018-09-01T05:32:09.261Z,6.45
2018-09-01T05:33:09.212Z,6.56
2018-09-01T05:34:09.225Z,6.49
2018-09-01T05:35:09.223Z,6.59
2018-09-01T05:36:09.191Z,6.57
2018-09-01T05:37:09.177Z,6.63
2018-09-01T05:38:09.166Z,6.72
2018-09-01T05:39:09.179Z,6.87
2018-09-01T05:40:09.141Z,6.93
2018-09-01T05:41:09.174Z,6.88
2018-09-01T05:42:09.123Z,6.85
2018-09-01T05:43:09.108Z,6.96
2018-09-01T05:44:09.097Z,6.82
2018-09-01T05:45:09.085Z,6.96
2018-09-01T05:46:09.072Z,6.88
2018-09-01T05:47:09.064Z,6.96
2018-09-01T05:48:09.154Z,6.99
2018-09-01T05:49:10.661Z,7.10
2018-09-01T05:50:09.214Z,7.07
2018-09-01T05:51:09.041Z,7.14
2018-09-01T05:52:09.010Z,7.17
2018-09-01T05:53:08.997Z,7.20
2018-09-01T05:54:08.994Z,7.24
2018-09-01T05:55:09.002Z,7.29
2018-09-01T05:56:08.981Z,7.32
2018-09-01T05:57:08.961Z,7.38
2018-09-01T05:58:08.943Z,7.31
2018-09-01T05:59:08.937Z,7.38
2018-09-01T06:00:08.925Z,7.48
2018-09-01T06:01:08.935Z,7.53
2018-09-01T06:02:08.908Z,7.57
2018-09-01T06:03:08.900Z,7.53
2018-09-01T06:04:08.880Z,7.69
2018-09-01T06:05:08.878Z,7.73
2018-09-01T06:06:08.994Z,7.73
2018-09-01T06:07:08.848Z,7.80
2018-09-01T06:08:08.839Z,7.88
2018-09-01T06:09:08.833Z,7.85
2018-09-01T06:10:08.823Z,7.97
2018-09-01T06:11:08.811Z,7.90
2018-09-01T06:12:08.802Z,7.95
2018-09-01T06:13:08.795Z,7.98
2018-09-01T06:14:08.792Z,8.01
2018-09-01T06:15:08.764Z,8.01
2018-09-01T06:16:08.756Z,8.08
2018-09-01T06:17:08.778Z,8.10
2018-09-01T06:18:08.732Z,8.20
2018-09-01T06:19:08.757Z,8.24
2018-09-01T06:20:08.720Z,8.30
2018-09-01T06:21:08.702Z,8.31
2018-09-01T06:22:08.694Z,8.28
2018-09-01T06:23:08.681Z,8.36
2018-09-01T06:24:08.669Z,8.31
2018-09-01T06:25:08.663Z,8.49
2018-09-01T06:26:08.643Z,8.44
2018-09-01T06:27:08.634Z,8.46
2018-09-01T06:28:08.652Z,8.46
2018-09-01T06:29:08.617Z,8.53
2018-09-01T06:30:08.646Z,8.73
2018-09-01T06:31:09.222Z,8.95
2018-09-01T06:32:08.585Z,9.08
2018-09-01T06:33:08.573Z,9.06
2018-09-01T06:34:08.564Z,9.14
2018-09-01T06:35:08.552Z,9.18
2018-09-01T06:36:08.535Z,9.26
2018-09-01T06:37:08.553Z,9.31
2018-09-01T06:38:08.550Z,9.34
2018-09-01T06:39:08.507Z,9.48
2018-09-01T06:40:08.496Z,9.56
2018-09-01T06:41:08.488Z,9.58
2018-09-01T06:42:08.475Z,9.58
2018-09-01T06:43:08.543Z,9.74
2018-09-01T06:44:08.450Z,9.69
2018-09-01T06:45:08.438Z,9.74
2018-09-01T06:46:08.432Z,9.79
2018-09-01T06:47:08.419Z,9.83
2018-09-01T06:48:08.406Z,9.87
2018-09-01T06:49:08.418Z,9.97
2018-09-01T06:50:08.384Z,9.97
2018-09-01T06:51:08.375Z,10.05
2018-09-01T06:52:08.366Z,10.12
2018-09-01T06:53:08.357Z,10.19
2018-09-01T06:54:08.346Z,10.25
2018-09-01T06:55:08.336Z,10.15
2018-09-01T06:56:08.324Z,10.17
2018-09-01T06:57:08.315Z,10.25
2018-09-01T06:58:08.299Z,10.25
2018-09-01T06:59:08.315Z,10.28
2018-09-01T07:00:08.358Z,10.46
2018-09-01T07:01:08.297Z,10.51
2018-09-01T07:02:08.253Z,10.61
2018-09-01T07:03:08.244Z,10.67
2018-09-01T07:04:08.238Z,10.60
2018-09-01T07:05:08.245Z,10.68
2018-09-01T07:06:08.243Z,10.74
2018-09-01T07:07:08.212Z,10.74
2018-09-01T07:08:08.190Z,10.84
2018-09-01T07:09:08.179Z,10.84
2018-09-01T07:10:08.167Z,10.87
2018-09-01T07:11:08.159Z,10.86
2018-09-01T07:12:08.149Z,11.00
2018-09-01T07:13:08.140Z,10.99
2018-09-01T07:14:08.131Z,11.12
2018-09-01T07:15:08.120Z,11.22
2018-09-01T07:16:08.128Z,11.41
2018-09-01T07:17:08.091Z,11.37
2018-09-01T07:18:08.087Z,11.36
2018-09-01T07:19:08.093Z,11.55
2018-09-01T07:20:08.093Z,11.55
2018-09-01T07:21:08.047Z,11.50
2018-09-01T07:22:08.038Z,11.57
2018-09-01T07:23:08.027Z,11.54
2018-09-01T07:24:08.019Z,11.57
2018-09-01T07:25:08.011Z,11.54
2018-09-01T07:26:07.999Z,11.63
2018-09-01T07:27:08.018Z,11.78
2018-09-01T07:28:07.973Z,11.87
2018-09-01T07:29:07.961Z,11.86
2018-09-01T07:30:08.050Z,11.84
2018-09-01T07:31:08.164Z,11.94
2018-09-01T07:32:07.933Z,11.84
2018-09-01T07:33:07.941Z,11.95
2018-09-01T07:34:07.906Z,12.04
2018-09-01T07:35:07.896Z,12.09
2018-09-01T07:36:07.893Z,12.21
2018-09-01T07:37:07.880Z,12.18
2018-09-01T07:38:07.896Z,12.22
2018-09-01T07:39:07.857Z,12.28
2018-09-01T07:40:07.848Z,12.36
2018-09-01T07:41:07.830Z,12.36
2018-09-01T07:42:07.820Z,12.43
2018-09-01T07:43:07.830Z,12.47
2018-09-01T07:44:07.827Z,12.58
2018-09-01T07:45:07.803Z,12.67
2018-09-01T07:46:07.798Z,12.73
2018-09-01T07:47:07.793Z,12.67
2018-09-01T07:48:07.758Z,12.61
2018-09-01T07:49:07.748Z,12.79
2018-09-01T07:50:07.809Z,12.80
2018-09-01T07:51:07.740Z,12.94
2018-09-01T07:52:07.732Z,13.13
2018-09-01T07:53:07.712Z,13.16
2018-09-01T07:54:07.692Z,13.27
2018-09-01T07:55:07.680Z,13.31
2018-09-01T07:56:07.786Z,13.19
2018-09-01T07:57:07.672Z,13.28
2018-09-01T07:58:07.655Z,13.31
2018-09-01T07:59:07.642Z,13.37
2018-09-01T08:00:07.630Z,13.38
2018-09-01T08:01:07.648Z,13.41
2018-09-01T08:02:07.608Z,13.39
2018-09-01T08:03:07.596Z,13.37
2018-09-01T08:04:07.588Z,13.44
2018-09-01T08:05:07.581Z,13.50
2018-09-01T08:06:07.563Z,13.50
2018-09-01T08:07:07.638Z,13.60
2018-09-01T08:08:07.547Z,13.67
2018-09-01T08:09:07.538Z,13.83
2018-09-01T08:10:07.525Z,13.83
2018-09-01T08:11:07.510Z,13.87
2018-09-01T08:12:07.501Z,13.99
2018-09-01T08:13:07.502Z,13.92
2018-09-01T08:14:07.572Z,14.05
2018-09-01T08:15:07.473Z,14.04
2018-09-01T08:16:07.454Z,14.22
2018-09-01T08:17:07.443Z,14.29
2018-09-01T08:18:07.468Z,14.25
2018-09-01T08:19:07.422Z,14.36
2018-09-01T08:20:07.418Z,14.48
2018-09-01T08:21:07.408Z,14.54
2018-09-01T08:22:07.400Z,14.50
2018-09-01T08:23:07.379Z,14.62
2018-09-01T08:24:07.405Z,14.68
2018-09-01T08:25:07.363Z,14.77
2018-09-01T08:26:07.372Z,14.82
2018-09-01T08:27:07.340Z,14.91
2018-09-01T08:28:07.325Z,15.02
2018-09-01T08:29:07.312Z,15.03
2018-09-01T08:30:07.331Z,15.15
2018-09-01T08:31:07.294Z,15.11
2018-09-01T08:32:07.289Z,15.24
2018-09-01T08:33:07.296Z,15.21
2018-09-01T08:34:07.275Z,15.31
2018-09-01T08:35:07.282Z,15.35
2018-09-01T08:36:07.237Z,15.39
2018-09-01T08:37:07.229Z,15.42
2018-09-01T08:38:07.230Z,15.57
2018-09-01T08:39:07.217Z,15.58
2018-09-01T08:40:07.226Z,15.58
2018-09-01T08:41:07.200Z,15.72
2018-09-01T08:42:07.172Z,15.73
2018-09-01T08:43:07.188Z,15.91
2018-09-01T08:44:07.156Z,16.02
2018-09-01T08:45:07.149Z,16.05
2018-09-01T08:46:07.166Z,16.17
2018-09-01T08:47:07.124Z,16.32
2018-09-01T08:48:07.131Z,16.39
2018-09-01T08:49:07.097Z,16.51
2018-09-01T08:50:07.085Z,16.54
2018-09-01T08:51:07.077Z,16.66
2018-09-01T08:52:07.091Z,16.66
2018-09-01T08:53:07.062Z,16.90
2018-09-01T08:54:07.060Z,16.96
2018-09-01T08:55:07.033Z,16.99
2018-09-01T08:56:07.024Z,17.09
2018-09-01T08:57:07.016Z,17.23
2018-09-01T08:58:07.022Z,17.19
2018-09-01T08:59:06.991Z,17.16
2018-09-01T09:00:06.979Z,17.09
2018-09-01T09:01:06.966Z,17.20
2018-09-01T09:02:06.962Z,17.33
2018-09-01T09:03:06.970Z,17.22
2018-09-01T09:04:06.947Z,17.23
2018-09-01T09:05:06.928Z,17.06
2018-09-01T09:06:06.920Z,16.97
2018-09-01T09:07:06.906Z,16.89
2018-09-01T09:08:06.893Z,16.96
2018-09-01T09:09:06.906Z,16.93
2018-09-01T09:10:06.875Z,17.04
2018-09-01T09:11:06.863Z,17.04
2018-09-01T09:12:06.850Z,17.01
2018-09-01T09:13:06.863Z,17.20
2018-09-01T09:14:06.824Z,17.27
2018-09-01T09:15:06.833Z,17.12
2018-09-01T09:16:06.809Z,17.02
2018-09-01T09:17:06.807Z,16.93
2018-09-01T09:18:06.788Z,17.05
2018-09-01T09:19:06.786Z,17.20
2018-09-01T09:20:06.792Z,17.34
2018-09-01T09:21:06.773Z,17.72
2018-09-01T09:22:06.738Z,17.90
2018-09-01T09:23:06.729Z,18.18
2018-09-01T09:24:06.721Z,18.34
2018-09-01T09:25:06.736Z,18.34
2018-09-01T09:26:06.763Z,18.40
2018-09-01T09:27:06.691Z,18.37
2018-09-01T09:28:06.678Z,18.41
2018-09-01T09:29:06.670Z,18.52
2018-09-01T09:30:06.659Z,18.49
2018-09-01T09:31:06.648Z,18.08
2018-09-01T09:32:06.650Z,18.05
2018-09-01T09:33:06.623Z,17.92
2018-09-01T09:34:06.614Z,17.68
2018-09-01T09:35:06.603Z,17.64
2018-09-01T09:36:06.597Z,17.39
2018-09-01T09:37:06.610Z,17.33
2018-09-01T09:38:06.573Z,17.24
2018-09-01T09:39:06.562Z,17.12
2018-09-01T09:40:06.560Z,17.16
2018-09-01T09:41:06.541Z,17.02
2018-09-01T09:42:06.531Z,17.06
2018-09-01T09:43:06.541Z,17.30
2018-09-01T09:44:06.507Z,17.38
2018-09-01T09:45:06.492Z,17.30
2018-09-01T09:46:06.492Z,17.27
2018-09-01T09:47:06.473Z,17.27
2018-09-01T09:48:06.465Z,17.31
2018-09-01T09:49:06.480Z,17.26
2018-09-01T09:50:06.445Z,17.26
2018-09-01T09:51:06.433Z,17.11
2018-09-01T09:52:06.419Z,17.06
2018-09-01T09:53:06.479Z,17.06
2018-09-01T09:54:06.400Z,16.91
2018-09-01T09:55:06.410Z,16.84
2018-09-01T09:56:06.379Z,16.90
2018-09-01T09:57:06.374Z,17.02
2018-09-01T09:58:06.409Z,17.29
2018-09-01T09:59:06.352Z,17.63
2018-09-01T10:00:06.362Z,17.86
2018-09-01T10:01:06.385Z,18.19
2018-09-01T10:02:06.334Z,18.26
2018-09-01T10:03:06.317Z,18.29
2018-09-01T10:04:06.291Z,18.50
2018-09-01T10:05:06.278Z,18.41
2018-09-01T10:06:06.294Z,18.38
2018-09-01T10:07:06.291Z,18.33
2018-09-01T10:08:06.252Z,18.16
2018-09-01T10:09:06.246Z,18.18
2018-09-01T10:10:06.266Z,18.15
2018-09-01T10:11:06.235Z,18.26
2018-09-01T10:12:06.226Z,18.38
2018-09-01T10:13:06.195Z,18.40
2018-09-01T10:14:06.198Z,18.45
2018-09-01T10:15:06.173Z,18.75
2018-09-01T10:16:06.191Z,18.93
2018-09-01T10:17:06.165Z,19.18
2018-09-01T10:18:06.141Z,19.11
2018-09-01T10:19:06.130Z,19.26
2018-09-01T10:20:06.251Z,19.40
2018-09-01T10:21:06.111Z,19.45
2018-09-01T10:22:06.127Z,19.44
2018-09-01T10:23:06.086Z,19.36
2018-09-01T10:24:06.074Z,19.30
2018-09-01T10:25:06.064Z,19.21
2018-09-01T10:26:06.055Z,19.12
2018-09-01T10:27:06.055Z,18.90
2018-09-01T10:28:06.086Z,18.83
2018-09-01T10:29:06.025Z,18.71
2018-09-01T10:30:06.013Z,18.73
2018-09-01T10:31:06.001Z,18.65
2018-09-01T10:32:06.013Z,18.58
2018-09-01T10:33:05.998Z,18.56
2018-09-01T10:34:05.994Z,18.58
2018-09-01T10:35:05.958Z,18.68
2018-09-01T10:36:05.945Z,18.74
2018-09-01T10:37:05.958Z,18.96
2018-09-01T10:38:05.922Z,19.12
2018-09-01T10:39:05.956Z,19.09
2018-09-01T10:40:06.066Z,19.12
2018-09-01T10:41:05.899Z,19.16
2018-09-01T10:42:05.895Z,19.15
2018-09-01T10:43:05.872Z,19.24
2018-09-01T10:44:05.858Z,19.16
2018-09-01T10:45:05.873Z,19.31
2018-09-01T10:46:05.843Z,19.30
2018-09-01T10:47:05.830Z,19.11
2018-09-01T10:48:05.852Z,18.88
2018-09-01T10:49:05.825Z,18.93
2018-09-01T10:50:05.796Z,18.83
2018-09-01T10:51:05.806Z,18.73
2018-09-01T10:52:05.777Z,18.74
2018-09-01T10:53:05.767Z,18.71
2018-09-01T10:54:05.762Z,18.84
2018-09-01T10:55:05.746Z,18.84
2018-09-01T10:56:05.731Z,18.98
2018-09-01T10:57:05.736Z,18.96
2018-09-01T10:58:05.708Z,19.16
2018-09-01T10:59:05.969Z,19.33
2018-09-01T11:00:05.698Z,19.82
2018-09-01T11:01:05.705Z,20.07
2018-09-01T11:02:05.681Z,20.31
2018-09-01T11:03:05.708Z,20.43
2018-09-01T11:04:05.649Z,20.84
2018-09-01T11:05:05.712Z,20.77
2018-09-01T11:06:05.630Z,20.78
2018-09-01T11:07:05.640Z,20.85
2018-09-01T11:08:05.604Z,20.87
2018-09-01T11:09:05.593Z,20.84
2018-09-01T11:10:05.594Z,20.51
2018-09-01T11:11:05.591Z,20.29
2018-09-01T11:12:05.560Z,20.39
2018-09-01T11:13:05.569Z,20.47
2018-09-01T11:14:05.541Z,20.62
2018-09-01T11:15:05.528Z,20.51
2018-09-01T11:16:05.514Z,20.55
2018-09-01T11:17:05.527Z,20.48
2018-09-01T11:18:05.497Z,20.51
2018-09-01T11:19:05.502Z,20.39
2018-09-01T11:20:05.535Z,20.21
2018-09-01T11:21:05.460Z,20.40
2018-09-01T11:22:05.449Z,20.47
2018-09-01T11:23:05.458Z,20.60
2018-09-01T11:24:05.444Z,20.77
2018-09-01T11:25:05.425Z,20.84
2018-09-01T11:26:05.416Z,21.02
2018-09-01T11:27:05.428Z,21.21
2018-09-01T11:28:05.436Z,21.33
2018-09-01T11:29:05.376Z,21.35
2018-09-01T11:30:05.425Z,21.72
2018-09-01T11:31:05.376Z,22.04
2018-09-01T11:32:05.348Z,22.35
2018-09-01T11:33:05.364Z,22.60
2018-09-01T11:34:05.379Z,22.88
2018-09-01T11:35:05.320Z,23.02
2018-09-01T11:36:05.343Z,22.93
2018-09-01T11:37:05.299Z,23.00
2018-09-01T11:38:05.287Z,23.31
2018-09-01T11:39:05.297Z,23.62
2018-09-01T11:40:05.262Z,23.86
2018-09-01T11:41:05.250Z,24.02
2018-09-01T11:42:05.244Z,24.63
2018-09-01T11:43:05.431Z,24.88
2018-09-01T11:44:05.249Z,24.17
2018-09-01T11:45:05.217Z,23.71
2018-09-01T11:46:05.218Z,23.05
2018-09-01T11:47:05.200Z,22.51
2018-09-01T11:48:05.180Z,22.23
2018-09-01T11:49:05.168Z,21.76
2018-09-01T11:50:05.264Z,21.45
2018-09-01T11:51:05.159Z,21.33
2018-09-01T11:52:05.165Z,21.12
2018-09-01T11:53:05.187Z,20.88
2018-09-01T11:54:05.128Z,20.75
2018-09-01T11:55:05.111Z,20.58
2018-09-01T11:56:05.124Z,20.36
2018-09-01T11:57:05.114Z,20.04
2018-09-01T11:58:05.089Z,19.77
2018-09-01T11:59:05.067Z,19.54
2018-09-01T12:00:05.055Z,19.45
2018-09-01T12:01:05.043Z,19.33
2018-09-01T12:02:05.088Z,19.29
2018-09-01T12:03:05.023Z,19.99
2018-09-01T12:04:05.015Z,20.92
2018-09-01T12:05:05.009Z,21.64
2018-09-01T12:06:04.992Z,22.32
2018-09-01T12:07:05.024Z,22.88
2018-09-01T12:08:04.976Z,23.47
2018-09-01T12:09:05.041Z,23.91
2018-09-01T12:10:04.955Z,24.30
2018-09-01T12:11:05.572Z,24.13
2018-09-01T12:12:04.928Z,24.50
2018-09-01T12:13:04.941Z,24.70
2018-09-01T12:14:04.905Z,25.03
2018-09-01T12:15:05.152Z,24.98
2018-09-01T12:16:04.890Z,25.33
2018-09-01T12:17:04.882Z,25.73
2018-09-01T12:18:04.870Z,26.15
2018-09-01T12:19:04.877Z,26.51
2018-09-01T12:20:04.844Z,26.58
2018-09-01T12:21:04.832Z,27.05
2018-09-01T12:22:04.832Z,27.48
2018-09-01T12:23:04.816Z,27.70
2018-09-01T12:24:04.828Z,27.48
2018-09-01T12:25:04.790Z,27.48
2018-09-01T12:26:04.782Z,27.73
2018-09-01T12:27:04.774Z,27.80
2018-09-01T12:28:04.767Z,28.10
2018-09-01T12:29:04.799Z,27.83
2018-09-01T12:30:04.789Z,26.92
2018-09-01T12:31:04.743Z,25.99
2018-09-01T12:32:04.716Z,26.88
2018-09-01T12:33:04.710Z,27.25
2018-09-01T12:34:04.711Z,27.58
2018-09-01T12:35:04.905Z,26.78
2018-09-01T12:36:04.738Z,25.58
2018-09-01T12:37:04.669Z,24.73
2018-09-01T12:38:04.657Z,24.28
2018-09-01T12:39:04.644Z,24.47
2018-09-01T12:40:04.643Z,24.38
2018-09-01T12:41:04.654Z,24.16
2018-09-01T12:42:04.670Z,23.95
2018-09-01T12:43:04.609Z,23.71
2018-09-01T12:44:04.593Z,23.61
2018-09-01T12:45:04.584Z,23.25
2018-09-01T12:46:04.579Z,23.06
2018-09-01T12:47:04.584Z,22.75
2018-09-01T12:48:04.556Z,22.72
2018-09-01T12:49:04.543Z,22.65
2018-09-01T12:50:04.532Z,23.06
2018-09-01T12:51:04.527Z,23.27
2018-09-01T12:52:04.580Z,23.32
2018-09-01T12:53:04.608Z,23.08
2018-09-01T12:54:04.498Z,22.91
2018-09-01T12:55:04.502Z,22.75
2018-09-01T12:56:04.466Z,22.44
2018-09-01T12:57:04.456Z,22.29
2018-09-01T12:58:04.447Z,22.18
2018-09-01T12:59:04.452Z,22.15
2018-09-01T13:00:04.431Z,22.07
2018-09-01T13:01:04.418Z,22.00
2018-09-01T13:02:04.410Z,21.88
2018-09-01T13:03:04.400Z,21.73
2018-09-01T13:04:04.405Z,21.79
2018-09-01T13:05:04.375Z,22.33